createdAt,value
2022-08-25T00:01:19.650Z,53.42
2022-08-25T00:03:46.081Z,54.61
2022-08-25T00:06:13.301Z,54.85
2022-08-25T00:08:39.862Z,53.61
2022-08-25T00:11:06.294Z,54.49
2022-08-25T00:13:33.116Z,55.90
2022-08-25T00:16:00.028Z,57.34
2022-08-25T00:18:26.788Z,56.61
2022-08-25T00:20:53.400Z,54.42
2022-08-25T00:23:19.797Z,54.92
2022-08-25T00:25:46.550Z,56.78
2022-08-25T00:28:13.572Z,55.54
2022-08-25T00:30:40.587Z,55.73
2022-08-25T00:33:07.067Z,55.68
2022-08-25T00:35:33.692Z,55.34
2022-08-25T00:38:00.305Z,53.75
2022-08-25T00:40:26.885Z,54.40
2022-08-25T00:42:53.742Z,53.07
2022-08-25T00:45:20.508Z,53.00
2022-08-25T00:47:47.177Z,53.62
2022-08-25T00:50:13.801Z,55.79
2022-08-25T00:52:40.297Z,55.62
2022-08-25T00:55:08.249Z,55.15
2022-08-25T00:57:35.183Z,54.11
2022-08-25T01:00:04.782Z,55.32
2022-08-25T01:02:31.302Z,54.26
2022-08-25T01:05:00.147Z,52.71
2022-08-25T01:07:26.629Z,52.95
2022-08-25T01:09:53.118Z,52.82
2022-08-25T01:12:20.059Z,52.47
2022-08-25T01:14:46.732Z,52.35
2022-08-25T01:17:13.790Z,52.34
2022-08-25T01:19:40.467Z,52.51
2022-08-25T01:22:07.040Z,51.82
2022-08-25T01:24:33.510Z,52.28
2022-08-25T01:27:00.670Z,52.75
2022-08-25T01:29:27.101Z,52.69
2022-08-25T01:31:53.652Z,52.12
2022-08-25T01:34:20.399Z,52.75
2022-08-25T01:36:47.020Z,53.12
2022-08-25T01:39:13.674Z,54.17
2022-08-25T01:41:40.434Z,53.94
2022-08-25T01:44:06.943Z,53.79
2022-08-25T01:46:36.511Z,53.50
2022-08-25T01:49:06.719Z,52.51
2022-08-25T01:51:33.421Z,51.87
2022-08-25T01:53:59.857Z,53.04
2022-08-25T01:56:26.625Z,52.43
2022-08-25T01:58:53.076Z,52.55
2022-08-25T02:01:19.982Z,53.24
2022-08-25T02:03:48.083Z,53.09
2022-08-25T02:06:15.072Z,52.51
2022-08-25T02:08:41.930Z,52.90
2022-08-25T02:11:08.463Z,53.35
2022-08-25T02:13:35.068Z,54.06
2022-08-25T02:16:02.081Z,53.23
2022-08-25T02:18:28.918Z,53.80
2022-08-25T02:20:55.580Z,53.09
2022-08-25T02:23:22.279Z,52.94
2022-08-25T02:25:48.910Z,53.04
2022-08-25T02:28:17.839Z,52.74
2022-08-25T02:30:44.394Z,52.37
2022-08-25T02:33:11.115Z,52.43
2022-08-25T02:35:37.549Z,52.86
2022-08-25T02:38:04.331Z,54.11
2022-08-25T02:40:31.047Z,54.71
2022-08-25T02:42:57.574Z,54.52
2022-08-25T02:45:23.973Z,54.96
2022-08-25T02:47:50.579Z,53.44
2022-08-25T02:50:17.092Z,54.04
2022-08-25T02:52:43.763Z,53.11
2022-08-25T02:55:10.565Z,52.99
2022-08-25T02:57:37.051Z,52.91
2022-08-25T03:00:03.549Z,53.30
2022-08-25T03:02:30.485Z,53.81
2022-08-25T03:04:57.253Z,53.50
2022-08-25T03:07:24.769Z,53.35
2022-08-25T03:09:51.418Z,52.90
2022-08-25T03:12:17.855Z,52.72
2022-08-25T03:14:44.789Z,53.58
2022-08-25T03:17:11.559Z,54.00
2022-08-25T03:19:38.052Z,54.68
2022-08-25T03:22:04.720Z,53.64
2022-08-25T03:24:31.427Z,53.37
2022-08-25T03:26:58.035Z,53.51
2022-08-25T03:29:24.478Z,53.08
2022-08-25T03:31:51.122Z,54.30
2022-08-25T03:34:17.608Z,54.89
2022-08-25T03:36:45.148Z,55.05
2022-08-25T03:39:11.681Z,54.53
2022-08-25T03:41:38.336Z,54.89
2022-08-25T03:44:04.777Z,54.33
2022-08-25T03:46:31.502Z,53.81
2022-08-25T03:48:58.509Z,54.97
2022-08-25T03:51:24.950Z,53.88
2022-08-25T03:53:52.157Z,54.51
2022-08-25T03:56:18.753Z,53.85
2022-08-25T03:58:45.343Z,54.38
2022-08-25T04:04:02.463Z,55.67
2022-08-25T04:06:28.872Z,55.07
2022-08-25T04:08:55.614Z,55.61
2022-08-25T04:11:22.217Z,56.53
2022-08-25T04:13:48.799Z,55.17
2022-08-25T04:16:15.258Z,54.82
2022-08-25T04:18:42.036Z,56.60
2022-08-25T04:21:08.601Z,55.31
2022-08-25T04:23:35.130Z,56.54
2022-08-25T04:26:01.852Z,55.84
2022-08-25T04:28:28.421Z,57.35
2022-08-25T04:30:54.842Z,56.68
2022-08-25T04:33:21.485Z,57.56
2022-08-25T04:35:47.900Z,56.32
2022-08-25T04:38:14.374Z,55.54
2022-08-25T04:40:41.283Z,55.36
2022-08-25T04:43:07.742Z,55.27
2022-08-25T04:45:34.216Z,54.92
2022-08-25T04:48:01.118Z,56.56
2022-08-25T04:50:27.594Z,56.12
2022-08-25T04:52:54.230Z,55.43
2022-08-25T04:55:20.932Z,54.67
2022-08-25T04:57:47.377Z,54.23
2022-08-25T05:00:13.755Z,54.60
2022-08-25T05:02:40.590Z,55.12
2022-08-25T05:05:07.089Z,54.43
2022-08-25T05:07:33.512Z,54.67
2022-08-25T05:10:00.217Z,54.69
2022-08-25T05:12:26.644Z,54.17
2022-08-25T05:14:57.245Z,54.72
2022-08-25T05:17:23.961Z,55.37
2022-08-25T05:19:50.438Z,56.13
2022-08-25T05:22:16.949Z,55.05
2022-08-25T05:24:46.347Z,55.77
2022-08-25T05:27:13.173Z,55.45
2022-08-25T05:29:39.587Z,54.92
2022-08-25T05:32:06.320Z,55.91
2022-08-25T05:34:33.044Z,54.82
2022-08-25T05:36:59.496Z,54.36
2022-08-25T05:39:26.872Z,54.77
2022-08-25T05:41:53.938Z,54.70
2022-08-25T05:44:21.362Z,56.22
2022-08-25T05:46:48.279Z,55.06
2022-08-25T05:49:15.171Z,55.20
2022-08-25T05:51:41.664Z,54.82
2022-08-25T05:54:08.117Z,54.83
2022-08-25T05:56:34.750Z,54.86
2022-08-25T05:59:02.449Z,54.41
2022-08-25T06:01:31.784Z,54.40
2022-08-25T06:03:58.698Z,54.29
2022-08-25T06:06:25.164Z,54.62
2022-08-25T06:08:51.736Z,54.27
2022-08-25T06:11:20.942Z,54.00
2022-08-25T06:13:47.396Z,54.03
2022-08-25T06:16:14.015Z,53.89
2022-08-25T06:18:40.897Z,55.04
2022-08-25T06:21:07.390Z,54.45
2022-08-25T06:23:36.487Z,54.26
2022-08-25T06:26:02.915Z,53.84
2022-08-25T06:28:29.749Z,53.91
2022-08-25T06:30:56.256Z,53.53
2022-08-25T06:33:22.713Z,53.41
2022-08-25T06:35:49.214Z,53.31
2022-08-25T06:38:15.789Z,53.00
2022-08-25T06:40:42.268Z,53.08
2022-08-25T06:43:08.943Z,53.10
2022-08-25T06:45:37.975Z,53.37
2022-08-25T06:48:04.458Z,53.41
2022-08-25T06:50:31.147Z,53.02
2022-08-25T06:52:58.109Z,53.02
2022-08-25T06:55:24.695Z,53.15
2022-08-25T06:57:51.309Z,52.64
2022-08-25T07:00:17.767Z,52.19
2022-08-25T07:02:44.224Z,51.77
2022-08-25T07:05:16.963Z,51.83
2022-08-25T07:07:48.113Z,51.83
2022-08-25T07:10:14.498Z,52.03
2022-08-25T07:12:45.986Z,51.73
2022-08-25T07:15:20.649Z,51.57
2022-08-25T07:17:47.436Z,51.57
2022-08-25T07:20:15.471Z,51.56
2022-08-25T07:22:42.737Z,51.52
2022-08-25T07:25:09.236Z,51.74
2022-08-25T07:27:35.834Z,51.44
2022-08-25T07:30:02.248Z,51.55
2022-08-25T07:32:31.385Z,51.44
2022-08-25T07:34:58.195Z,51.92
2022-08-25T07:37:48.777Z,52.12
2022-08-25T07:40:11.310Z,51.90
2022-08-25T07:42:37.821Z,51.58
2022-08-25T07:45:04.309Z,51.85
2022-08-25T07:47:34.331Z,51.99
2022-08-25T07:50:00.752Z,52.53
2022-08-25T07:52:28.086Z,52.48
2022-08-25T07:54:54.635Z,52.30
2022-08-25T07:57:21.524Z,51.84
2022-08-25T07:59:47.917Z,51.78
2022-08-25T08:02:18.468Z,51.73
2022-08-25T08:04:45.754Z,51.75
2022-08-25T08:07:12.352Z,51.52
2022-08-25T08:09:38.975Z,51.64
2022-08-25T08:12:05.426Z,51.85
2022-08-25T08:14:31.887Z,51.83
2022-08-25T08:16:59.100Z,51.77
2022-08-25T08:19:25.862Z,51.63
2022-08-25T08:21:52.672Z,51.42
2022-08-25T08:24:44.104Z,51.30
2022-08-25T08:27:07.504Z,51.16
2022-08-25T08:29:34.035Z,51.26
2022-08-25T08:32:01.803Z,50.99
2022-08-25T08:34:29.069Z,50.55
2022-08-25T08:36:56.119Z,50.71
2022-08-25T08:39:22.880Z,51.42
2022-08-25T08:42:07.697Z,51.93
2022-08-25T08:44:36.811Z,52.91
2022-08-25T08:47:03.625Z,52.47
2022-08-25T08:49:30.468Z,52.40
2022-08-25T08:51:58.328Z,51.99
2022-08-25T08:54:24.828Z,51.38
2022-08-25T08:56:52.825Z,50.53
2022-08-25T08:59:19.993Z,49.79
2022-08-25T09:01:52.606Z,49.96
2022-08-25T09:04:21.172Z,49.68
2022-08-25T09:06:50.968Z,48.86
2022-08-25T09:09:20.122Z,49.14
2022-08-25T09:11:46.907Z,49.64
2022-08-25T09:14:13.332Z,49.05
2022-08-25T09:16:42.786Z,48.76
2022-08-25T09:19:11.058Z,48.92
2022-08-25T09:21:47.695Z,48.61
2022-08-25T09:24:15.800Z,48.25
2022-08-25T09:26:42.390Z,49.86
2022-08-25T09:29:16.348Z,49.55
2022-08-25T09:31:43.686Z,49.35
2022-08-25T09:34:10.358Z,50.50
2022-08-25T09:36:39.270Z,49.97
2022-08-25T09:39:05.905Z,49.40
2022-08-25T09:41:33.354Z,49.16
2022-08-25T09:44:02.341Z,48.87
2022-08-25T09:46:28.891Z,48.63
2022-08-25T09:48:56.847Z,48.52
2022-08-25T09:51:24.301Z,48.20
2022-08-25T09:53:51.535Z,47.31
2022-08-25T09:56:17.969Z,48.05
2022-08-25T09:58:45.515Z,47.66
2022-08-25T10:01:12.268Z,47.42
2022-08-25T10:03:39.006Z,47.23
2022-08-25T10:06:05.495Z,46.81
2022-08-25T10:08:32.043Z,46.23
2022-08-25T10:10:58.601Z,46.32
2022-08-25T10:13:25.247Z,46.58
2022-08-25T10:18:36.076Z,45.42
2022-08-25T10:21:02.483Z,45.04
2022-08-25T10:23:30.695Z,45.04
2022-08-25T10:26:00.570Z,45.19
2022-08-25T10:28:29.925Z,45.18
2022-08-25T10:30:56.397Z,45.50
2022-08-25T10:33:23.043Z,45.40
2022-08-25T10:35:49.643Z,45.82
2022-08-25T10:38:21.623Z,45.62
2022-08-25T10:40:48.589Z,44.92
2022-08-25T10:43:27.418Z,44.95
2022-08-25T10:45:54.275Z,45.07
2022-08-25T10:48:22.272Z,45.14
2022-08-25T10:50:49.114Z,45.13
2022-08-25T10:53:15.892Z,45.46
2022-08-25T12:00:26.542Z,39.47
2022-08-25T12:02:52.926Z,41.25
2022-08-25T12:05:19.399Z,41.42
2022-08-25T12:07:46.205Z,41.82
2022-08-25T12:10:12.879Z,42.08
2022-08-25T12:12:39.291Z,40.44
2022-08-25T12:15:06.031Z,41.69
2022-08-25T12:17:32.522Z,41.77
2022-08-25T12:19:59.312Z,41.08
2022-08-25T12:22:25.790Z,40.07
2022-08-25T12:24:52.294Z,39.01
2022-08-25T12:27:18.731Z,40.56
2022-08-25T12:29:50.017Z,39.99
2022-08-25T12:32:16.678Z,39.25
2022-08-25T12:34:43.057Z,39.11
2022-08-25T12:37:14.751Z,39.65
2022-08-25T12:39:41.183Z,39.95
2022-08-25T12:42:07.595Z,39.67
2022-08-25T12:44:34.191Z,38.50
2022-08-25T12:47:00.654Z,39.21
2022-08-25T12:49:30.720Z,39.28
2022-08-25T12:51:59.301Z,38.21
2022-08-25T12:54:25.762Z,38.13
2022-08-25T12:56:53.910Z,39.43
2022-08-25T12:59:20.838Z,39.47
2022-08-25T13:01:47.979Z,38.11
2022-08-25T13:04:15.854Z,37.99
2022-08-25T13:06:48.831Z,38.28
2022-08-25T13:09:15.636Z,39.74
2022-08-25T13:11:42.636Z,38.35
2022-08-25T13:14:11.495Z,38.38
2022-08-25T13:16:38.061Z,36.65
2022-08-25T13:19:04.700Z,37.54
2022-08-25T13:21:33.413Z,37.02
2022-08-25T13:24:05.149Z,38.33
2022-08-25T13:26:32.438Z,38.50
2022-08-25T13:28:59.949Z,38.24
2022-08-25T13:31:26.468Z,38.26
2022-08-25T13:33:54.927Z,38.41
2022-08-25T13:36:21.821Z,38.02
2022-08-25T13:38:48.767Z,37.55
2022-08-25T13:41:16.382Z,37.48
2022-08-25T13:43:44.711Z,38.15
2022-08-25T13:46:12.474Z,37.21
2022-08-25T13:48:49.823Z,36.58
2022-08-25T13:51:16.647Z,36.99
2022-08-25T13:53:48.388Z,36.92
2022-08-25T13:58:46.947Z,35.79
2022-08-25T14:01:22.331Z,36.77
2022-08-25T14:04:01.461Z,36.63
2022-08-25T14:06:28.076Z,37.56
2022-08-25T14:08:54.861Z,38.08
2022-08-25T14:11:21.500Z,38.32
2022-08-25T14:13:48.651Z,38.07
2022-08-25T14:16:15.687Z,37.37
2022-08-25T14:18:44.348Z,38.42
2022-08-25T14:21:11.083Z,38.52
2022-08-25T14:23:37.901Z,37.03
2022-08-25T14:26:04.650Z,37.56
2022-08-25T14:28:33.083Z,37.41
2022-08-25T14:30:59.616Z,37.09
2022-08-25T14:33:26.870Z,36.23
2022-08-25T14:35:53.953Z,36.37
2022-08-25T14:38:21.795Z,36.09
2022-08-25T14:40:52.156Z,34.54
2022-08-25T14:43:20.888Z,34.36
2022-08-25T14:45:50.950Z,34.58
2022-08-25T14:48:19.478Z,35.17
2022-08-25T14:50:46.082Z,35.33
2022-08-25T14:53:13.024Z,34.89
2022-08-25T14:55:39.742Z,34.88
2022-08-25T14:58:06.845Z,34.69
2022-08-25T15:00:35.532Z,34.63
2022-08-25T15:03:03.114Z,34.29
2022-08-25T15:05:29.850Z,33.91
2022-08-25T15:07:57.611Z,33.57
2022-08-25T15:10:25.483Z,34.17
2022-08-25T15:12:53.904Z,33.94
2022-08-25T15:15:21.597Z,33.05
2022-08-25T15:17:49.481Z,33.58
2022-08-25T15:20:16.864Z,34.45
2022-08-25T15:22:43.496Z,34.46
2022-08-25T15:25:10.423Z,33.90
2022-08-25T15:27:37.365Z,34.01
2022-08-25T15:30:03.883Z,33.74
2022-08-25T15:32:30.550Z,33.72
2022-08-25T15:34:57.721Z,33.65
2022-08-25T15:37:24.438Z,33.58
2022-08-25T15:39:50.908Z,33.98
2022-08-25T15:42:17.450Z,34.19
2022-08-25T15:44:53.331Z,34.32
2022-08-25T15:47:20.162Z,33.81
2022-08-25T15:49:47.072Z,33.75
2022-08-25T15:52:13.684Z,34.18
2022-08-25T15:54:40.474Z,34.19
2022-08-25T15:57:09.530Z,34.15
2022-08-25T15:59:41.025Z,33.61
2022-08-25T16:02:15.281Z,34.42
2022-08-25T16:04:42.034Z,34.55
2022-08-25T16:07:09.256Z,33.59
2022-08-25T16:09:40.281Z,33.93
2022-08-25T16:12:08.719Z,34.39
2022-08-25T16:14:35.423Z,34.37
2022-08-25T16:17:02.210Z,33.65
2022-08-25T16:19:29.527Z,33.77
2022-08-25T16:21:56.226Z,32.88
2022-08-25T16:24:22.763Z,33.35
2022-08-25T16:26:50.357Z,34.15
2022-08-25T16:29:18.347Z,34.76
2022-08-25T16:31:48.187Z,35.07
2022-08-25T16:34:20.042Z,33.71
2022-08-25T16:36:46.755Z,35.14
2022-08-25T16:39:13.218Z,35.52
2022-08-25T16:41:40.160Z,35.01
2022-08-25T16:44:11.141Z,35.37
2022-08-25T16:46:38.161Z,35.75
2022-08-25T16:49:07.225Z,36.02
2022-08-25T16:51:33.697Z,36.09
2022-08-25T16:54:00.646Z,36.50
2022-08-25T16:56:27.598Z,36.29
2022-08-25T16:58:54.000Z,34.40
2022-08-25T17:01:21.321Z,34.53
2022-08-25T17:03:48.179Z,35.15
2022-08-25T17:06:15.137Z,36.91
2022-08-25T17:08:42.109Z,36.52
2022-08-25T17:11:10.247Z,35.16
2022-08-25T17:13:36.783Z,36.21
2022-08-25T17:16:03.348Z,35.29
2022-08-25T17:18:30.059Z,35.60
2022-08-25T17:20:56.532Z,36.92
2022-08-25T17:23:22.968Z,36.70
2022-08-25T17:25:49.542Z,37.06
2022-08-25T17:28:15.959Z,37.44
2022-08-25T17:30:42.905Z,37.54
2022-08-25T17:33:09.478Z,37.90
2022-08-25T17:35:35.858Z,38.09
2022-08-25T17:38:02.315Z,38.06
2022-08-25T17:40:32.953Z,38.25
2022-08-25T17:43:01.555Z,38.10
2022-08-25T17:45:27.968Z,38.33
2022-08-25T17:47:54.900Z,38.70
2022-08-25T17:50:21.809Z,38.27
2022-08-25T17:52:49.030Z,38.00
2022-08-25T17:55:15.721Z,38.26
2022-08-25T17:57:42.305Z,39.03
2022-08-25T18:00:08.709Z,40.71
2022-08-25T18:02:37.763Z,40.29
2022-08-25T18:05:04.353Z,39.79
2022-08-25T18:07:31.658Z,42.28
2022-08-25T18:09:58.312Z,43.07
2022-08-25T18:12:27.368Z,43.32
2022-08-25T18:14:54.173Z,43.77
2022-08-25T18:17:21.968Z,43.85
2022-08-25T18:19:49.699Z,43.31
2022-08-25T18:22:16.184Z,43.91
2022-08-25T18:24:42.982Z,45.18
2022-08-25T18:27:09.508Z,45.87
2022-08-25T18:29:35.948Z,44.41
2022-08-25T18:32:02.412Z,44.34
2022-08-25T18:34:31.091Z,44.54
2022-08-25T18:36:57.754Z,45.47
2022-08-25T18:39:24.720Z,46.51
2022-08-25T18:41:51.510Z,46.92
2022-08-25T18:44:18.088Z,47.50
2022-08-25T18:46:45.254Z,45.25
2022-08-25T18:49:12.129Z,43.79
2022-08-25T18:51:42.631Z,43.17
2022-08-25T18:54:22.850Z,42.15
2022-08-25T18:56:50.344Z,41.84
2022-08-25T18:59:18.220Z,41.90
2022-08-25T19:01:45.453Z,42.63
2022-08-25T19:04:12.097Z,41.61
2022-08-25T19:06:38.907Z,41.30
2022-08-25T19:09:10.281Z,41.08
2022-08-25T19:11:36.964Z,42.03
2022-08-25T19:14:03.628Z,41.32
2022-08-25T19:16:39.491Z,41.77
2022-08-25T19:19:07.405Z,41.08
2022-08-25T19:21:35.081Z,41.44
2022-08-25T19:24:03.162Z,41.48
2022-08-25T19:26:29.875Z,40.97
2022-08-25T19:28:56.690Z,41.13
2022-08-25T19:31:23.307Z,41.57
2022-08-25T19:33:50.072Z,42.06
2022-08-25T19:36:17.367Z,41.39
2022-08-25T19:38:43.846Z,41.61
2022-08-25T19:41:14.523Z,41.31
2022-08-25T19:43:55.213Z,41.40
2022-08-25T19:46:23.573Z,41.55
2022-08-25T19:48:50.585Z,41.37
2022-08-25T19:51:19.286Z,42.61
2022-08-25T19:53:54.816Z,42.38
2022-08-25T19:56:23.113Z,42.27
2022-08-25T19:58:49.582Z,42.26
2022-08-25T20:01:18.184Z,42.82
2022-08-25T20:03:46.205Z,42.39
2022-08-25T20:06:15.939Z,42.17
2022-08-25T20:08:42.807Z,42.70
2022-08-25T20:11:09.452Z,42.16
2022-08-25T20:13:36.289Z,42.43
2022-08-25T20:16:02.797Z,41.70
2022-08-25T20:18:32.076Z,42.22
2022-08-25T20:20:58.540Z,41.55
2022-08-25T20:23:25.274Z,41.73
2022-08-25T20:25:54.300Z,42.37
2022-08-25T20:28:22.840Z,42.39
2022-08-25T20:30:49.444Z,42.20
2022-08-25T20:33:22.838Z,42.24
2022-08-25T20:35:50.245Z,42.50
2022-08-25T20:38:21.020Z,42.91
2022-08-25T20:40:49.912Z,42.91
2022-08-25T20:43:16.535Z,42.44
2022-08-25T20:45:43.200Z,43.18
2022-08-25T20:48:09.760Z,43.06
2022-08-25T20:50:36.259Z,42.99
2022-08-25T20:53:05.418Z,43.07
2022-08-25T20:55:41.704Z,43.83
2022-08-25T20:58:09.052Z,43.22
2022-08-25T21:00:36.129Z,43.30
2022-08-25T21:03:02.741Z,42.98
2022-08-25T21:05:29.253Z,42.72
2022-08-25T21:08:02.943Z,42.86
2022-08-25T21:10:29.428Z,42.69
2022-08-25T21:12:57.630Z,43.40
2022-08-25T21:15:24.266Z,43.52
2022-08-25T21:17:50.789Z,43.69
2022-08-25T21:20:17.963Z,44.07
2022-08-25T21:22:44.970Z,43.96
2022-08-25T21:25:14.296Z,44.14
2022-08-25T21:27:40.787Z,43.49
2022-08-25T21:30:11.277Z,43.11
2022-08-25T21:32:37.832Z,42.85
2022-08-25T21:35:04.447Z,43.10
2022-08-25T21:37:34.407Z,43.10
2022-08-25T21:40:01.097Z,43.07
2022-08-25T21:42:28.643Z,43.18
2022-08-25T21:44:55.060Z,43.00
2022-08-25T21:47:21.740Z,42.94
2022-08-25T21:49:49.860Z,43.19
2022-08-25T21:52:16.373Z,43.94
2022-08-25T21:54:44.476Z,43.69
2022-08-25T21:57:11.555Z,44.08
2022-08-25T21:59:37.979Z,44.04
2022-08-25T22:02:05.471Z,44.15
2022-08-25T22:04:32.258Z,44.54
2022-08-25T22:06:59.259Z,44.03
2022-08-25T22:09:28.565Z,43.67
2022-08-25T22:11:55.096Z,44.38
2022-08-25T22:14:21.642Z,44.64
2022-08-25T22:16:48.194Z,44.70
2022-08-25T22:19:15.328Z,44.83
2022-08-25T22:21:41.842Z,44.82
2022-08-25T22:24:08.458Z,45.36
2022-08-25T22:26:34.907Z,45.00
2022-08-25T22:29:01.400Z,44.67
2022-08-25T22:31:27.842Z,44.52
2022-08-25T22:33:54.891Z,44.49
2022-08-25T22:36:24.204Z,44.80
2022-08-25T22:38:51.325Z,44.97
2022-08-25T22:41:19.070Z,44.54
2022-08-25T22:43:49.925Z,45.03
2022-08-25T22:46:17.985Z,44.86
2022-08-25T22:48:44.775Z,44.71
2022-08-25T22:51:12.670Z,44.83
2022-08-25T22:53:39.186Z,45.27
2022-08-25T22:56:05.748Z,45.23
2022-08-25T22:58:32.312Z,45.26
2022-08-25T23:01:00.964Z,45.25
2022-08-25T23:03:27.490Z,45.05
2022-08-25T23:05:53.969Z,44.91
2022-08-25T23:08:38.905Z,45.38
2022-08-25T23:11:07.141Z,44.85
2022-08-25T23:13:34.757Z,44.61
2022-08-25T23:16:05.277Z,44.88
2022-08-25T23:18:32.300Z,46.07
2022-08-25T23:20:59.030Z,45.60
2022-08-25T23:23:28.558Z,45.50
2022-08-25T23:25:55.184Z,45.81
2022-08-25T23:28:21.926Z,45.82
2022-08-25T23:30:50.976Z,45.75
2022-08-25T23:33:25.990Z,45.69
2022-08-25T23:35:52.452Z,45.82
2022-08-25T23:38:19.128Z,46.38
2022-08-25T23:40:45.974Z,46.12
2022-08-25T23:43:13.096Z,46.48
2022-08-25T23:45:39.626Z,45.93
2022-08-25T23:48:07.428Z,45.96
2022-08-25T23:50:33.964Z,45.90
2022-08-25T23:53:00.469Z,45.96
2022-08-25T23:55:33.429Z,46.10
2022-08-25T23:58:00.640Z,46.14
